createdAt,value
2018-04-17T00:01:38.171Z,11.20
2018-04-17T00:06:41.535Z,11.10
2018-04-17T00:11:45.269Z,11.20
2018-04-17T00:17:13.296Z,11.20
2018-04-17T00:22:17.038Z,11.10
2018-04-17T00:27:21.591Z,11.00
2018-04-17T00:32:25.379Z,11.00
2018-04-17T00:37:32.306Z,10.80
2018-04-17T00:42:35.928Z,10.60
2018-04-17T00:47:42.023Z,10.60
2018-04-17T00:52:45.264Z,10.70
2018-04-17T00:57:49.724Z,10.70
2018-04-17T01:02:54.518Z,10.50
2018-04-17T01:07:57.739Z,10.40
2018-04-17T01:13:01.495Z,10.50
2018-04-17T01:18:05.158Z,10.20
2018-04-17T01:23:08.387Z,10.20
2018-04-17T01:28:11.699Z,10.10
2018-04-17T01:33:17.782Z,10.00
2018-04-17T01:38:21.092Z,10.00
2018-04-17T01:43:26.009Z,9.90
2018-04-17T01:48:29.460Z,10.00
2018-04-17T01:53:33.127Z,9.60
2018-04-17T01:58:39.595Z,9.70
2018-04-17T02:03:42.966Z,9.70
2018-04-17T02:08:46.594Z,9.50
2018-04-17T02:13:50.199Z,9.40
2018-04-17T02:18:53.914Z,9.30
2018-04-17T02:23:57.528Z,9.20
2018-04-17T02:29:00.764Z,9.20
2018-04-17T02:34:03.984Z,9.10
2018-04-17T02:39:07.248Z,8.90
2018-04-17T02:44:10.890Z,8.60
2018-04-17T02:49:14.141Z,8.60
2018-04-17T02:54:17.436Z,8.50
2018-04-17T02:59:20.664Z,8.40
2018-04-17T03:04:23.888Z,8.30
2018-04-17T03:09:27.564Z,8.30
2018-04-17T03:14:30.826Z,8.30
2018-04-17T03:19:34.081Z,8.30
2018-04-17T03:24:37.321Z,8.40
2018-04-17T03:29:41.537Z,8.50
2018-04-17T03:34:44.751Z,8.50
2018-04-17T03:39:50.434Z,8.40
2018-04-17T03:44:53.710Z,8.40
2018-04-17T03:49:56.946Z,8.30
2018-04-17T03:55:00.184Z,8.20
2018-04-17T04:00:03.404Z,8.20
2018-04-17T04:05:06.613Z,8.00
2018-04-17T04:10:09.938Z,8.00
2018-04-17T04:15:13.151Z,7.90
2018-04-17T04:20:28.646Z,7.80
2018-04-17T04:31:16.527Z,7.70
2018-04-17T04:36:20.139Z,7.50
2018-04-17T04:41:23.776Z,7.30
2018-04-17T04:46:27.032Z,7.30
2018-04-17T04:51:30.260Z,7.30
2018-04-17T04:56:33.544Z,7.30
2018-04-17T05:01:36.747Z,7.40
2018-04-17T05:06:39.972Z,7.40
2018-04-17T05:11:43.189Z,7.60
2018-04-17T05:16:46.465Z,7.70
2018-04-17T05:21:49.709Z,7.90
2018-04-17T05:26:53.374Z,8.10
2018-04-17T05:31:57.286Z,8.10
2018-04-17T05:37:00.500Z,8.20
2018-04-17T05:42:03.736Z,8.30
2018-04-17T05:47:06.939Z,8.50
2018-04-17T05:52:10.151Z,8.70
2018-04-17T05:57:14.040Z,8.80
2018-04-17T06:02:17.261Z,9.00
2018-04-17T06:07:20.466Z,9.30
2018-04-17T06:12:23.985Z,9.50
2018-04-17T06:17:27.218Z,9.80
2018-04-17T06:22:30.442Z,10.00
2018-04-17T06:27:33.672Z,10.10
2018-04-17T06:32:36.928Z,10.40
2018-04-17T06:37:40.642Z,10.90
2018-04-17T06:42:43.966Z,10.90
2018-04-17T06:47:47.593Z,11.00
2018-04-17T06:52:50.812Z,11.00
2018-04-17T06:57:54.048Z,11.30
2018-04-17T07:02:57.361Z,11.50
2018-04-17T07:08:00.695Z,11.70
2018-04-17T07:13:03.927Z,11.90
2018-04-17T07:18:07.142Z,12.00
2018-04-17T07:23:10.376Z,12.10
2018-04-17T07:28:13.606Z,12.20
2018-04-17T07:33:16.831Z,12.10
2018-04-17T07:38:20.536Z,12.50
2018-04-17T07:43:23.846Z,12.50
2018-04-17T07:48:38.896Z,12.70
2018-04-17T07:53:42.125Z,12.80
2018-04-17T07:58:45.369Z,13.00
2018-04-17T08:03:49.555Z,13.20
2018-04-17T08:08:53.208Z,13.50
2018-04-17T08:13:56.697Z,13.50
2018-04-17T08:19:00.535Z,13.50
2018-04-17T08:24:04.325Z,13.70
2018-04-17T08:29:07.848Z,13.70
2018-04-17T08:34:11.066Z,13.70
2018-04-17T08:39:14.327Z,13.80
2018-04-17T08:44:18.127Z,13.80
2018-04-17T08:49:21.589Z,13.60
2018-04-17T08:54:24.922Z,13.60
2018-04-17T08:59:28.537Z,14.30
2018-04-17T09:04:31.767Z,14.30
2018-04-17T09:09:35.122Z,14.50
2018-04-17T09:14:39.537Z,14.40
2018-04-17T09:19:42.767Z,14.50
2018-04-17T09:24:45.988Z,14.80
2018-04-17T09:29:49.603Z,14.90
2018-04-17T09:34:53.311Z,15.30
2018-04-17T09:39:56.920Z,15.40
2018-04-17T09:45:00.151Z,15.40
2018-04-17T09:50:03.361Z,15.70
2018-04-17T09:55:06.600Z,16.10
2018-04-17T10:00:09.837Z,16.30
2018-04-17T10:05:13.046Z,16.30
2018-04-17T10:10:16.268Z,16.10
2018-04-17T10:15:19.490Z,16.40
2018-04-17T10:20:22.718Z,16.90
2018-04-17T10:25:25.942Z,16.80
2018-04-17T10:30:29.162Z,17.00
2018-04-17T10:35:33.004Z,17.30
2018-04-17T10:40:36.641Z,17.80
2018-04-17T10:45:39.981Z,17.80
2018-04-17T10:50:43.202Z,18.30
2018-04-17T10:55:46.424Z,18.70
2018-04-17T11:00:49.647Z,18.70
2018-04-17T11:05:53.267Z,19.20
2018-04-17T11:10:56.941Z,19.40
2018-04-17T11:16:00.186Z,19.40
2018-04-17T11:21:04.006Z,20.00
2018-04-17T11:26:07.626Z,20.10
2018-04-17T11:31:10.879Z,20.10
2018-04-17T11:36:14.187Z,20.70
2018-04-17T11:41:17.420Z,22.60
2018-04-17T11:46:20.646Z,24.20
2018-04-17T11:51:24.349Z,27.30
2018-04-17T11:56:27.561Z,27.30
2018-04-17T12:01:31.271Z,28.50
2018-04-17T12:06:34.889Z,29.10
2018-04-17T12:11:38.116Z,29.10
2018-04-17T12:16:41.349Z,29.20
2018-04-17T12:21:44.574Z,29.30
2018-04-17T12:26:47.804Z,29.10
2018-04-17T12:31:51.022Z,29.40
2018-04-17T12:36:55.358Z,29.00
2018-04-17T12:41:58.984Z,30.90
2018-04-17T12:47:02.194Z,30.90
2018-04-17T12:52:05.428Z,30.60
2018-04-17T12:57:08.653Z,31.60
2018-04-17T13:02:11.876Z,30.40
2018-04-17T13:07:15.112Z,27.80
2018-04-17T13:12:18.339Z,29.10
2018-04-17T13:17:21.710Z,30.40
2018-04-17T13:22:25.364Z,28.40
2018-04-17T13:27:28.592Z,28.40
2018-04-17T13:32:31.817Z,30.20
2018-04-17T13:37:35.032Z,31.50
2018-04-17T13:42:38.251Z,31.10
2018-04-17T13:47:41.975Z,26.40
2018-04-17T13:52:45.228Z,26.40
2018-04-17T13:57:48.446Z,26.10
2018-04-17T14:02:51.671Z,25.70
2018-04-17T14:07:55.103Z,25.40
2018-04-17T14:12:58.778Z,27.00
2018-04-17T14:18:02.010Z,27.00
2018-04-17T14:23:05.599Z,27.60
2018-04-17T14:28:08.819Z,27.10
2018-04-17T14:33:12.042Z,26.50
2018-04-17T14:38:15.651Z,25.80
2018-04-17T14:43:18.890Z,25.80
2018-04-17T14:48:22.402Z,24.60
2018-04-17T14:53:26.122Z,24.80
2018-04-17T14:58:29.345Z,24.80
2018-04-17T15:03:32.642Z,25.70
2018-04-17T15:08:36.258Z,24.30
2018-04-17T15:13:39.483Z,24.30
2018-04-17T15:18:42.739Z,23.70
2018-04-17T15:23:46.347Z,23.50
2018-04-17T15:45:16.069Z,23.00
2018-04-17T15:50:19.912Z,22.80
2018-04-17T15:55:23.305Z,22.80
2018-04-17T16:11:24.765Z,22.90
2018-04-17T16:16:31.031Z,22.90
2018-04-17T16:21:34.488Z,23.80
2018-04-17T16:26:37.712Z,24.60
2018-04-17T16:31:41.026Z,26.60
2018-04-17T16:36:44.240Z,28.90
2018-04-17T16:41:47.951Z,29.20
2018-04-17T16:46:51.569Z,27.90
2018-04-17T16:51:55.188Z,24.60
2018-04-17T16:56:58.867Z,23.10
2018-04-17T17:02:02.201Z,23.10
2018-04-17T17:07:05.424Z,24.00
2018-04-17T17:12:09.502Z,23.20
2018-04-17T17:17:12.724Z,23.30
2018-04-17T17:22:15.948Z,21.50
2018-04-17T17:27:19.212Z,20.90
2018-04-17T17:32:22.484Z,20.40
2018-04-17T17:37:25.695Z,20.10
2018-04-17T17:42:29.074Z,19.90
2018-04-17T17:47:32.800Z,19.40
2018-04-17T17:52:36.407Z,19.10
2018-04-17T17:57:39.617Z,19.10
2018-04-17T18:02:43.235Z,18.70
2018-04-17T18:07:46.885Z,18.60
2018-04-17T18:12:50.119Z,18.60
2018-04-17T18:17:53.388Z,18.50
2018-04-17T18:22:56.724Z,18.20
2018-04-17T18:27:59.987Z,18.00
2018-04-17T18:33:03.599Z,17.60
2018-04-17T18:38:07.212Z,17.50
2018-04-17T18:43:11.014Z,17.30
2018-04-17T18:48:14.256Z,17.30
2018-04-17T18:53:17.470Z,17.20
2018-04-17T18:58:20.698Z,17.00
2018-04-17T19:03:23.931Z,16.90
2018-04-17T19:08:27.172Z,16.80
2018-04-17T19:13:30.400Z,16.70
2018-04-17T19:18:33.630Z,16.50
2018-04-17T19:23:36.879Z,16.10
2018-04-17T19:28:40.515Z,15.90
2018-04-17T19:33:43.894Z,15.50
2018-04-17T19:38:47.593Z,15.00
2018-04-17T19:43:51.843Z,15.00
2018-04-17T19:48:55.480Z,15.20
2018-04-17T19:53:58.768Z,15.20
2018-04-17T19:59:02.410Z,15.20
2018-04-17T20:04:05.634Z,15.20
2018-04-17T20:09:09.500Z,15.10
2018-04-17T20:14:13.212Z,15.10
2018-04-17T20:19:16.427Z,15.10
2018-04-17T20:24:20.075Z,14.90
2018-04-17T20:29:23.350Z,14.90
2018-04-17T20:34:27.034Z,15.00
2018-04-17T20:39:30.290Z,14.90
2018-04-17T20:44:33.686Z,14.90
2018-04-17T20:49:37.575Z,14.80
2018-04-17T20:54:40.815Z,14.70
2018-04-17T20:59:44.722Z,14.40
2018-04-17T21:04:47.960Z,14.40
2018-04-17T21:09:51.220Z,14.30
2018-04-17T21:14:54.469Z,14.30
2018-04-17T21:19:57.848Z,14.20
2018-04-17T21:25:01.627Z,14.40
2018-04-17T21:30:05.509Z,14.40
2018-04-17T21:35:09.257Z,14.50
2018-04-17T21:40:12.488Z,14.50
2018-04-17T21:45:16.872Z,14.40
2018-04-17T21:50:20.239Z,14.50
2018-04-17T21:55:23.689Z,14.40
2018-04-17T22:00:27.236Z,14.40
2018-04-17T22:05:31.290Z,14.30
2018-04-17T22:10:34.559Z,14.10
2018-04-17T22:15:37.798Z,13.80
2018-04-17T22:20:41.117Z,13.90
2018-04-17T22:25:44.475Z,14.10
2018-04-17T22:30:48.980Z,14.10
2018-04-17T22:35:52.394Z,14.20
2018-04-17T22:40:56.429Z,13.90
2018-04-17T22:45:59.793Z,13.90
2018-04-17T22:51:03.023Z,13.60
2018-04-17T22:56:07.258Z,13.50
2018-04-17T23:01:10.683Z,13.50
2018-04-17T23:06:14.386Z,13.20
2018-04-17T23:11:17.996Z,13.00
2018-04-17T23:16:21.720Z,12.80
2018-04-17T23:21:25.429Z,12.50
2018-04-17T23:26:29.052Z,12.50
2018-04-17T23:31:32.703Z,12.40
2018-04-17T23:36:36.024Z,12.40
2018-04-17T23:41:39.251Z,12.40
2018-04-17T23:46:42.575Z,12.30
2018-04-17T23:51:45.968Z,12.10
2018-04-17T23:56:50.642Z,11.90
